createdAt,value
2022-11-02T00:04:17.175Z,15.80
2022-11-02T00:18:17.172Z,15.90
2022-11-02T00:32:17.219Z,15.20
2022-11-02T00:46:17.211Z,14.90
2022-11-02T01:00:17.208Z,14.50
2022-11-02T01:14:17.220Z,13.80
2022-11-02T01:28:17.219Z,13.40
2022-11-02T01:42:17.252Z,12.20
2022-11-02T01:56:17.274Z,11.90
2022-11-02T02:10:17.220Z,10.90
2022-11-02T02:24:17.242Z,10.20
2022-11-02T02:38:17.254Z,9.40
2022-11-02T02:52:17.255Z,8.80
2022-11-02T03:06:17.268Z,8.10
2022-11-02T03:20:17.277Z,7.50
2022-11-02T03:34:17.336Z,7.50
2022-11-02T03:48:17.302Z,6.60
2022-11-02T04:02:17.491Z,6.40
2022-11-02T04:16:17.362Z,5.90
2022-11-02T04:30:17.370Z,5.50
2022-11-02T04:44:17.373Z,5.30
2022-11-02T04:58:17.453Z,5.10
2022-11-02T05:12:17.508Z,5.50
2022-11-02T05:26:17.491Z,4.80
2022-11-02T05:40:17.545Z,4.50
2022-11-02T05:55:17.488Z,4.40
2022-11-02T06:10:17.508Z,5.10
2022-11-02T06:26:17.536Z,4.70
2022-11-02T06:41:17.527Z,4.60
2022-11-02T06:56:17.551Z,5.30
2022-11-02T07:11:17.557Z,4.90
2022-11-02T07:26:17.565Z,4.80
2022-11-02T07:41:17.574Z,4.90
2022-11-02T07:56:17.574Z,4.90
2022-11-02T08:11:17.741Z,4.50
2022-11-02T08:26:17.745Z,4.90
2022-11-02T08:41:17.764Z,5.90
2022-11-02T08:56:17.791Z,6.15
2022-11-02T09:11:17.776Z,5.40
2022-11-02T09:26:17.783Z,5.00
2022-11-02T09:41:17.785Z,4.80
2022-11-02T09:56:17.841Z,4.10
2022-11-02T10:11:17.913Z,3.90
2022-11-02T10:26:17.912Z,4.40
2022-11-02T10:41:17.935Z,3.80
2022-11-02T10:56:17.936Z,3.70
2022-11-02T11:11:17.974Z,5.00
2022-11-02T11:26:17.948Z,4.50
2022-11-02T11:42:17.967Z,4.40
2022-11-02T11:57:17.964Z,5.60
2022-11-02T12:12:17.980Z,6.90
2022-11-02T12:27:17.972Z,6.70
2022-11-02T12:42:17.977Z,8.10
2022-11-02T12:57:17.989Z,8.40
2022-11-02T13:12:18.004Z,8.00
2022-11-02T13:27:35.088Z,11.80
2022-11-02T13:42:18.038Z,11.10
2022-11-02T13:57:18.029Z,10.40
2022-11-02T14:12:18.025Z,10.20
2022-11-02T14:27:18.038Z,10.90
2022-11-02T14:42:18.066Z,10.80
2022-11-02T14:57:18.074Z,10.70
2022-11-02T15:12:18.072Z,11.85
2022-11-02T15:27:18.065Z,11.80
2022-11-02T15:42:18.092Z,10.40
2022-11-02T15:57:18.119Z,9.60
2022-11-02T16:12:18.111Z,8.70
2022-11-02T16:27:18.099Z,7.20
2022-11-02T16:41:18.113Z,7.40
2022-11-02T16:55:18.127Z,6.60
2022-11-02T17:09:18.189Z,6.10
2022-11-02T17:23:18.179Z,6.40
2022-11-02T17:37:18.175Z,6.50
2022-11-02T17:51:18.187Z,6.10
2022-11-02T18:05:18.199Z,5.50
2022-11-02T18:19:18.237Z,6.20
2022-11-02T18:33:18.223Z,11.60
2022-11-02T18:47:18.199Z,10.80
2022-11-02T19:01:18.269Z,10.80
2022-11-02T19:15:18.222Z,10.80
2022-11-02T19:29:18.226Z,10.40
2022-11-02T19:43:18.238Z,10.50
2022-11-02T19:57:18.215Z,9.50
2022-11-02T20:11:18.217Z,9.00
2022-11-02T20:25:18.245Z,8.90
2022-11-02T20:39:18.329Z,8.80
2022-11-02T20:53:18.258Z,8.60
2022-11-02T21:07:18.308Z,8.60
2022-11-02T21:21:18.278Z,8.40
2022-11-02T21:35:18.264Z,7.90
2022-11-02T21:49:18.267Z,8.00
2022-11-02T22:03:18.274Z,7.70
2022-11-02T22:17:35.672Z,7.70
2022-11-02T22:31:18.329Z,7.30
2022-11-02T22:45:18.281Z,7.30
2022-11-02T22:59:18.296Z,6.80
2022-11-02T23:13:18.289Z,6.80
2022-11-02T23:27:18.426Z,6.80
2022-11-02T23:41:18.359Z,6.70
2022-11-02T23:55:18.360Z,6.40
